sensor_id;sensor_type;location;lat;lon;timestamp;P1;durP1;ratioP1;P2;durP2;ratioP2
37431;SDS011;23292;51.300;6.252;2023-12-22T00:00:21;12.73;;;1.73;;
37431;SDS011;23292;51.300;6.252;2023-12-22T00:02:48;7.97;;;1.70;;
37431;SDS011;23292;51.300;6.252;2023-12-22T00:05:15;13.38;;;2.03;;
37431;SDS011;23292;51.300;6.252;2023-12-22T00:07:42;9.43;;;1.60;;
37431;SDS011;23292;51.300;6.252;2023-12-22T00:10:08;18.98;;;2.08;;
37431;SDS011;23292;51.300;6.252;2023-12-22T00:12:35;18.55;;;1.55;;
37431;SDS011;23292;51.300;6.252;2023-12-22T00:15:04;13.00;;;1.77;;
37431;SDS011;23292;51.300;6.252;2023-12-22T00:17:32;14.73;;;1.73;;
37431;SDS011;23292;51.300;6.252;2023-12-22T00:19:59;11.88;;;1.98;;
37431;SDS011;23292;51.300;6.252;2023-12-22T00:22:29;9.68;;;2.67;;
37431;SDS011;23292;51.300;6.252;2023-12-22T00:24:56;9.38;;;1.98;;
37431;SDS011;23292;51.300;6.252;2023-12-22T00:27:23;6.00;;;1.50;;
37431;SDS011;23292;51.300;6.252;2023-12-22T00:29:50;20.90;;;2.88;;
37431;SDS011;23292;51.300;6.252;2023-12-22T00:32:17;13.30;;;2.33;;
37431;SDS011;23292;51.300;6.252;2023-12-22T00:34:43;9.43;;;1.60;;
37431;SDS011;23292;51.300;6.252;2023-12-22T00:37:10;10.63;;;1.40;;
37431;SDS011;23292;51.300;6.252;2023-12-22T00:39:38;10.13;;;1.95;;
37431;SDS011;23292;51.300;6.252;2023-12-22T00:42:05;10.82;;;2.20;;
37431;SDS011;23292;51.300;6.252;2023-12-22T00:44:33;13.82;;;2.50;;
37431;SDS011;23292;51.300;6.252;2023-12-22T00:46:59;15.40;;;2.25;;
37431;SDS011;23292;51.300;6.252;2023-12-22T00:49:26;8.25;;;1.45;;
37431;SDS011;23292;51.300;6.252;2023-12-22T00:51:53;21.63;;;2.35;;
37431;SDS011;23292;51.300;6.252;2023-12-22T00:54:20;12.85;;;1.92;;
37431;SDS011;23292;51.300;6.252;2023-12-22T00:56:47;11.32;;;1.95;;
37431;SDS011;23292;51.300;6.252;2023-12-22T00:59:14;16.95;;;2.53;;
37431;SDS011;23292;51.300;6.252;2023-12-22T01:01:41;13.02;;;1.70;;
37431;SDS011;23292;51.300;6.252;2023-12-22T01:04:10;10.60;;;1.80;;
37431;SDS011;23292;51.300;6.252;2023-12-22T01:06:37;19.05;;;2.22;;
37431;SDS011;23292;51.300;6.252;2023-12-22T01:09:05;12.00;;;1.55;;
37431;SDS011;23292;51.300;6.252;2023-12-22T01:11:31;6.78;;;1.30;;
37431;SDS011;23292;51.300;6.252;2023-12-22T01:13:58;17.02;;;1.92;;
37431;SDS011;23292;51.300;6.252;2023-12-22T01:16:25;15.15;;;1.70;;
37431;SDS011;23292;51.300;6.252;2023-12-22T01:18:52;17.50;;;2.22;;
37431;SDS011;23292;51.300;6.252;2023-12-22T01:21:19;22.83;;;2.88;;
37431;SDS011;23292;51.300;6.252;2023-12-22T01:23:47;9.75;;;1.38;;
37431;SDS011;23292;51.300;6.252;2023-12-22T01:26:13;11.68;;;1.67;;
37431;SDS011;23292;51.300;6.252;2023-12-22T01:28:40;13.73;;;2.40;;
37431;SDS011;23292;51.300;6.252;2023-12-22T01:31:07;12.27;;;2.10;;
37431;SDS011;23292;51.300;6.252;2023-12-22T01:33:34;16.70;;;2.28;;
37431;SDS011;23292;51.300;6.252;2023-12-22T01:36:01;21.05;;;3.35;;
37431;SDS011;23292;51.300;6.252;2023-12-22T01:38:28;11.95;;;1.55;;
37431;SDS011;23292;51.300;6.252;2023-12-22T01:40:55;13.93;;;2.03;;
37431;SDS011;23292;51.300;6.252;2023-12-22T01:43:22;13.48;;;1.80;;
37431;SDS011;23292;51.300;6.252;2023-12-22T01:45:50;16.30;;;3.00;;
37431;SDS011;23292;51.300;6.252;2023-12-22T01:48:21;14.77;;;2.22;;
37431;SDS011;23292;51.300;6.252;2023-12-22T01:50:50;14.32;;;3.42;;
37431;SDS011;23292;51.300;6.252;2023-12-22T01:53:19;12.25;;;2.10;;
37431;SDS011;23292;51.300;6.252;2023-12-22T01:55:47;11.27;;;2.60;;
37431;SDS011;23292;51.300;6.252;2023-12-22T01:58:17;12.52;;;2.05;;
37431;SDS011;23292;51.300;6.252;2023-12-22T02:00:46;11.43;;;3.03;;
37431;SDS011;23292;51.300;6.252;2023-12-22T02:03:13;18.02;;;2.25;;
37431;SDS011;23292;51.300;6.252;2023-12-22T02:05:41;17.60;;;2.50;;
37431;SDS011;23292;51.300;6.252;2023-12-22T02:08:09;14.48;;;2.60;;
37431;SDS011;23292;51.300;6.252;2023-12-22T02:10:37;24.90;;;3.05;;
37431;SDS011;23292;51.300;6.252;2023-12-22T02:13:04;20.20;;;2.85;;
37431;SDS011;23292;51.300;6.252;2023-12-22T02:15:32;19.83;;;3.60;;
37431;SDS011;23292;51.300;6.252;2023-12-22T02:18:02;22.10;;;3.90;;
37431;SDS011;23292;51.300;6.252;2023-12-22T02:20:36;21.48;;;3.42;;
37431;SDS011;23292;51.300;6.252;2023-12-22T02:23:04;22.38;;;3.45;;
37431;SDS011;23292;51.300;6.252;2023-12-22T02:25:31;13.95;;;2.45;;
37431;SDS011;23292;51.300;6.252;2023-12-22T02:28:00;20.75;;;2.78;;
37431;SDS011;23292;51.300;6.252;2023-12-22T02:33:03;19.73;;;2.78;;
37431;SDS011;23292;51.300;6.252;2023-12-22T02:35:33;14.20;;;2.00;;
37431;SDS011;23292;51.300;6.252;2023-12-22T02:38:03;19.38;;;3.22;;
37431;SDS011;23292;51.300;6.252;2023-12-22T02:40:31;20.35;;;3.40;;
37431;SDS011;23292;51.300;6.252;2023-12-22T02:43:02;24.38;;;2.85;;
37431;SDS011;23292;51.300;6.252;2023-12-22T02:45:29;31.95;;;2.42;;
37431;SDS011;23292;51.300;6.252;2023-12-22T02:47:58;18.73;;;2.67;;
37431;SDS011;23292;51.300;6.252;2023-12-22T02:50:25;21.63;;;2.58;;
37431;SDS011;23292;51.300;6.252;2023-12-22T02:52:52;21.75;;;3.15;;
37431;SDS011;23292;51.300;6.252;2023-12-22T02:55:19;17.25;;;2.55;;
37431;SDS011;23292;51.300;6.252;2023-12-22T02:57:46;16.67;;;3.10;;
37431;SDS011;23292;51.300;6.252;2023-12-22T03:00:13;23.88;;;2.90;;
37431;SDS011;23292;51.300;6.252;2023-12-22T03:02:40;27.30;;;2.92;;
37431;SDS011;23292;51.300;6.252;2023-12-22T03:05:07;28.25;;;3.47;;
37431;SDS011;23292;51.300;6.252;2023-12-22T03:07:34;24.02;;;3.00;;
37431;SDS011;23292;51.300;6.252;2023-12-22T03:10:01;28.63;;;3.65;;
37431;SDS011;23292;51.300;6.252;2023-12-22T03:12:28;33.15;;;4.38;;
37431;SDS011;23292;51.300;6.252;2023-12-22T03:14:56;20.42;;;3.78;;
37431;SDS011;23292;51.300;6.252;2023-12-22T03:17:22;25.85;;;3.28;;
37431;SDS011;23292;51.300;6.252;2023-12-22T03:19:49;19.73;;;2.50;;
37431;SDS011;23292;51.300;6.252;2023-12-22T03:22:17;25.10;;;3.65;;
37431;SDS011;23292;51.300;6.252;2023-12-22T03:24:43;20.40;;;3.85;;
37431;SDS011;23292;51.300;6.252;2023-12-22T03:27:10;18.75;;;2.75;;
37431;SDS011;23292;51.300;6.252;2023-12-22T03:32:09;29.08;;;3.08;;
37431;SDS011;23292;51.300;6.252;2023-12-22T03:34:36;18.92;;;2.78;;
37431;SDS011;23292;51.300;6.252;2023-12-22T03:37:03;19.95;;;3.92;;
37431;SDS011;23292;51.300;6.252;2023-12-22T03:39:30;18.58;;;2.50;;
37431;SDS011;23292;51.300;6.252;2023-12-22T03:41:57;21.80;;;2.92;;
37431;SDS011;23292;51.300;6.252;2023-12-22T03:44:25;19.67;;;2.70;;
37431;SDS011;23292;51.300;6.252;2023-12-22T03:46:52;18.67;;;2.42;;
37431;SDS011;23292;51.300;6.252;2023-12-22T03:49:19;19.05;;;3.33;;
37431;SDS011;23292;51.300;6.252;2023-12-22T03:51:46;15.20;;;2.10;;
37431;SDS011;23292;51.300;6.252;2023-12-22T03:54:12;13.65;;;2.42;;
37431;SDS011;23292;51.300;6.252;2023-12-22T03:56:42;8.15;;;2.28;;
37431;SDS011;23292;51.300;6.252;2023-12-22T03:59:09;16.88;;;2.63;;
37431;SDS011;23292;51.300;6.252;2023-12-22T04:01:35;18.30;;;3.00;;
37431;SDS011;23292;51.300;6.252;2023-12-22T04:04:02;16.95;;;2.65;;
37431;SDS011;23292;51.300;6.252;2023-12-22T04:06:29;17.45;;;3.00;;
37431;SDS011;23292;51.300;6.252;2023-12-22T04:08:56;15.98;;;3.03;;
37431;SDS011;23292;51.300;6.252;2023-12-22T04:11:23;15.55;;;2.65;;
37431;SDS011;23292;51.300;6.252;2023-12-22T04:13:49;18.73;;;3.05;;
37431;SDS011;23292;51.300;6.252;2023-12-22T04:16:16;19.27;;;2.70;;
37431;SDS011;23292;51.300;6.252;2023-12-22T04:18:43;22.20;;;2.85;;
37431;SDS011;23292;51.300;6.252;2023-12-22T04:21:10;14.65;;;2.55;;
37431;SDS011;23292;51.300;6.252;2023-12-22T04:23:37;18.13;;;3.10;;
37431;SDS011;23292;51.300;6.252;2023-12-22T04:26:03;21.00;;;2.55;;
37431;SDS011;23292;51.300;6.252;2023-12-22T04:28:30;22.27;;;3.28;;
37431;SDS011;23292;51.300;6.252;2023-12-22T04:30:57;21.85;;;2.75;;
37431;SDS011;23292;51.300;6.252;2023-12-22T04:33:24;20.70;;;3.08;;
37431;SDS011;23292;51.300;6.252;2023-12-22T04:35:51;26.08;;;4.50;;
37431;SDS011;23292;51.300;6.252;2023-12-22T04:38:17;18.27;;;2.83;;
37431;SDS011;23292;51.300;6.252;2023-12-22T04:40:44;19.88;;;3.30;;
37431;SDS011;23292;51.300;6.252;2023-12-22T04:43:11;19.10;;;3.05;;
37431;SDS011;23292;51.300;6.252;2023-12-22T04:45:38;24.20;;;5.03;;
37431;SDS011;23292;51.300;6.252;2023-12-22T04:48:05;23.23;;;3.63;;
37431;SDS011;23292;51.300;6.252;2023-12-22T04:50:32;24.08;;;2.67;;
37431;SDS011;23292;51.300;6.252;2023-12-22T04:52:59;20.52;;;2.88;;
37431;SDS011;23292;51.300;6.252;2023-12-22T04:55:26;18.83;;;2.65;;
37431;SDS011;23292;51.300;6.252;2023-12-22T04:57:52;26.33;;;3.42;;
37431;SDS011;23292;51.300;6.252;2023-12-22T05:00:19;18.63;;;2.88;;
37431;SDS011;23292;51.300;6.252;2023-12-22T05:02:59;11.15;;;2.35;;
37431;SDS011;23292;51.300;6.252;2023-12-22T05:05:26;20.95;;;3.05;;
37431;SDS011;23292;51.300;6.252;2023-12-22T05:07:53;15.65;;;2.50;;
37431;SDS011;23292;51.300;6.252;2023-12-22T05:10:20;22.92;;;2.85;;
37431;SDS011;23292;51.300;6.252;2023-12-22T05:12:46;19.52;;;2.97;;
37431;SDS011;23292;51.300;6.252;2023-12-22T05:15:13;17.15;;;2.60;;
37431;SDS011;23292;51.300;6.252;2023-12-22T05:17:40;15.77;;;2.67;;
37431;SDS011;23292;51.300;6.252;2023-12-22T05:20:07;15.57;;;2.78;;
37431;SDS011;23292;51.300;6.252;2023-12-22T05:22:36;18.80;;;2.90;;
37431;SDS011;23292;51.300;6.252;2023-12-22T05:25:03;15.35;;;2.80;;
37431;SDS011;23292;51.300;6.252;2023-12-22T05:27:30;20.27;;;2.85;;
37431;SDS011;23292;51.300;6.252;2023-12-22T05:29:57;17.88;;;2.75;;
37431;SDS011;23292;51.300;6.252;2023-12-22T05:32:27;16.15;;;3.15;;
37431;SDS011;23292;51.300;6.252;2023-12-22T05:34:54;14.25;;;3.00;;
37431;SDS011;23292;51.300;6.252;2023-12-22T05:37:21;25.67;;;3.28;;
37431;SDS011;23292;51.300;6.252;2023-12-22T05:39:48;21.08;;;3.05;;
37431;SDS011;23292;51.300;6.252;2023-12-22T05:42:15;18.45;;;2.85;;
37431;SDS011;23292;51.300;6.252;2023-12-22T05:44:43;16.20;;;2.47;;
37431;SDS011;23292;51.300;6.252;2023-12-22T05:47:12;19.65;;;2.92;;
37431;SDS011;23292;51.300;6.252;2023-12-22T05:49:40;19.15;;;3.05;;
37431;SDS011;23292;51.300;6.252;2023-12-22T05:52:07;24.70;;;3.38;;
37431;SDS011;23292;51.300;6.252;2023-12-22T05:54:37;24.30;;;2.97;;
37431;SDS011;23292;51.300;6.252;2023-12-22T05:57:04;19.35;;;3.00;;
37431;SDS011;23292;51.300;6.252;2023-12-22T05:59:32;15.13;;;2.95;;
37431;SDS011;23292;51.300;6.252;2023-12-22T06:02:01;19.40;;;2.50;;
37431;SDS011;23292;51.300;6.252;2023-12-22T06:04:29;18.83;;;2.97;;
37431;SDS011;23292;51.300;6.252;2023-12-22T06:06:56;18.75;;;3.28;;
37431;SDS011;23292;51.300;6.252;2023-12-22T06:09:23;24.88;;;3.60;;
37431;SDS011;23292;51.300;6.252;2023-12-22T06:11:50;19.52;;;3.03;;
37431;SDS011;23292;51.300;6.252;2023-12-22T06:14:17;14.40;;;2.72;;
37431;SDS011;23292;51.300;6.252;2023-12-22T06:16:44;14.90;;;2.45;;
37431;SDS011;23292;51.300;6.252;2023-12-22T06:19:12;17.38;;;3.20;;
37431;SDS011;23292;51.300;6.252;2023-12-22T06:21:39;14.82;;;2.78;;
37431;SDS011;23292;51.300;6.252;2023-12-22T06:24:07;11.43;;;2.13;;
37431;SDS011;23292;51.300;6.252;2023-12-22T06:26:35;15.05;;;1.90;;
37431;SDS011;23292;51.300;6.252;2023-12-22T06:29:01;15.63;;;1.83;;
37431;SDS011;23292;51.300;6.252;2023-12-22T06:31:30;17.90;;;3.40;;
37431;SDS011;23292;51.300;6.252;2023-12-22T06:33:57;16.20;;;2.50;;
37431;SDS011;23292;51.300;6.252;2023-12-22T06:38:58;16.50;;;2.50;;
37431;SDS011;23292;51.300;6.252;2023-12-22T06:43:54;16.40;;;3.28;;
37431;SDS011;23292;51.300;6.252;2023-12-22T06:46:26;15.02;;;3.40;;
37431;SDS011;23292;51.300;6.252;2023-12-22T06:48:55;27.00;;;3.53;;
37431;SDS011;23292;51.300;6.252;2023-12-22T06:51:27;21.63;;;3.38;;
37431;SDS011;23292;51.300;6.252;2023-12-22T06:53:55;21.25;;;3.83;;
37431;SDS011;23292;51.300;6.252;2023-12-22T06:56:23;9.25;;;2.80;;
37431;SDS011;23292;51.300;6.252;2023-12-22T06:58:53;12.68;;;2.75;;
37431;SDS011;23292;51.300;6.252;2023-12-22T07:01:31;14.65;;;2.45;;
37431;SDS011;23292;51.300;6.252;2023-12-22T07:04:00;23.25;;;2.90;;
37431;SDS011;23292;51.300;6.252;2023-12-22T07:06:29;20.77;;;3.00;;
37431;SDS011;23292;51.300;6.252;2023-12-22T07:09:27;16.48;;;2.60;;
37431;SDS011;23292;51.300;6.252;2023-12-22T07:14:12;22.17;;;3.42;;
37431;SDS011;23292;51.300;6.252;2023-12-22T07:16:39;21.85;;;4.28;;
37431;SDS011;23292;51.300;6.252;2023-12-22T07:19:06;17.58;;;3.20;;
37431;SDS011;23292;51.300;6.252;2023-12-22T07:21:33;20.30;;;5.03;;
37431;SDS011;23292;51.300;6.252;2023-12-22T07:24:00;21.30;;;3.83;;
37431;SDS011;23292;51.300;6.252;2023-12-22T07:26:27;18.45;;;2.92;;
37431;SDS011;23292;51.300;6.252;2023-12-22T07:28:54;23.27;;;4.28;;
37431;SDS011;23292;51.300;6.252;2023-12-22T07:31:21;29.40;;;4.50;;
37431;SDS011;23292;51.300;6.252;2023-12-22T07:33:48;27.80;;;4.32;;
37431;SDS011;23292;51.300;6.252;2023-12-22T07:36:15;25.77;;;4.18;;
37431;SDS011;23292;51.300;6.252;2023-12-22T07:38:42;47.28;;;5.25;;
37431;SDS011;23292;51.300;6.252;2023-12-22T07:41:09;31.23;;;5.03;;
37431;SDS011;23292;51.300;6.252;2023-12-22T07:43:38;31.98;;;5.28;;
37431;SDS011;23292;51.300;6.252;2023-12-22T07:46:05;34.00;;;6.15;;
37431;SDS011;23292;51.300;6.252;2023-12-22T07:48:31;37.92;;;5.50;;
37431;SDS011;23292;51.300;6.252;2023-12-22T07:50:59;33.10;;;5.00;;
37431;SDS011;23292;51.300;6.252;2023-12-22T07:53:25;34.50;;;5.55;;
37431;SDS011;23292;51.300;6.252;2023-12-22T07:55:52;29.25;;;5.95;;
37431;SDS011;23292;51.300;6.252;2023-12-22T07:58:20;37.55;;;5.28;;
37431;SDS011;23292;51.300;6.252;2023-12-22T08:00:47;39.05;;;5.25;;
37431;SDS011;23292;51.300;6.252;2023-12-22T08:03:14;44.78;;;6.78;;
37431;SDS011;23292;51.300;6.252;2023-12-22T08:05:41;36.20;;;6.05;;
37431;SDS011;23292;51.300;6.252;2023-12-22T08:08:08;40.83;;;5.95;;
37431;SDS011;23292;51.300;6.252;2023-12-22T08:10:35;33.80;;;5.80;;
37431;SDS011;23292;51.300;6.252;2023-12-22T08:13:02;43.58;;;6.35;;
37431;SDS011;23292;51.300;6.252;2023-12-22T08:15:29;34.95;;;7.07;;
37431;SDS011;23292;51.300;6.252;2023-12-22T08:18:02;38.28;;;6.55;;
37431;SDS011;23292;51.300;6.252;2023-12-22T08:20:30;30.17;;;5.90;;
37431;SDS011;23292;51.300;6.252;2023-12-22T08:23:02;40.38;;;6.88;;
37431;SDS011;23292;51.300;6.252;2023-12-22T08:25:36;37.10;;;6.07;;
37431;SDS011;23292;51.300;6.252;2023-12-22T08:28:03;37.85;;;5.82;;
37431;SDS011;23292;51.300;6.252;2023-12-22T08:30:30;39.88;;;6.10;;
37431;SDS011;23292;51.300;6.252;2023-12-22T08:32:57;28.90;;;5.60;;
37431;SDS011;23292;51.300;6.252;2023-12-22T08:35:24;36.95;;;5.18;;
37431;SDS011;23292;51.300;6.252;2023-12-22T08:37:51;36.35;;;5.75;;
37431;SDS011;23292;51.300;6.252;2023-12-22T08:40:19;33.05;;;5.22;;
37431;SDS011;23292;51.300;6.252;2023-12-22T08:42:52;38.42;;;5.55;;
37431;SDS011;23292;51.300;6.252;2023-12-22T08:45:37;44.17;;;5.40;;
37431;SDS011;23292;51.300;6.252;2023-12-22T08:48:04;30.20;;;4.88;;
37431;SDS011;23292;51.300;6.252;2023-12-22T08:50:34;31.30;;;6.30;;
37431;SDS011;23292;51.300;6.252;2023-12-22T08:53:01;35.88;;;6.45;;
37431;SDS011;23292;51.300;6.252;2023-12-22T08:55:28;29.15;;;4.72;;
37431;SDS011;23292;51.300;6.252;2023-12-22T08:57:55;27.92;;;4.88;;
37431;SDS011;23292;51.300;6.252;2023-12-22T09:00:28;26.95;;;4.80;;
37431;SDS011;23292;51.300;6.252;2023-12-22T09:02:55;29.42;;;4.93;;
37431;SDS011;23292;51.300;6.252;2023-12-22T09:05:23;30.83;;;5.75;;
37431;SDS011;23292;51.300;6.252;2023-12-22T09:07:50;31.08;;;5.18;;
37431;SDS011;23292;51.300;6.252;2023-12-22T09:10:18;30.20;;;5.50;;
37431;SDS011;23292;51.300;6.252;2023-12-22T09:12:45;24.55;;;3.42;;
37431;SDS011;23292;51.300;6.252;2023-12-22T09:15:12;25.92;;;4.85;;
37431;SDS011;23292;51.300;6.252;2023-12-22T09:17:39;25.27;;;4.38;;
37431;SDS011;23292;51.300;6.252;2023-12-22T09:20:11;25.73;;;3.90;;
37431;SDS011;23292;51.300;6.252;2023-12-22T09:22:38;22.83;;;4.53;;
37431;SDS011;23292;51.300;6.252;2023-12-22T09:25:05;20.15;;;3.95;;
37431;SDS011;23292;51.300;6.252;2023-12-22T09:27:32;26.38;;;3.70;;
37431;SDS011;23292;51.300;6.252;2023-12-22T09:29:59;20.63;;;3.35;;
37431;SDS011;23292;51.300;6.252;2023-12-22T09:32:26;25.35;;;3.90;;
37431;SDS011;23292;51.300;6.252;2023-12-22T09:34:54;25.20;;;4.07;;
37431;SDS011;23292;51.300;6.252;2023-12-22T09:37:23;19.00;;;3.45;;
37431;SDS011;23292;51.300;6.252;2023-12-22T09:39:49;18.73;;;3.00;;
37431;SDS011;23292;51.300;6.252;2023-12-22T09:42:16;11.25;;;2.13;;
37431;SDS011;23292;51.300;6.252;2023-12-22T09:44:43;13.20;;;2.78;;
37431;SDS011;23292;51.300;6.252;2023-12-22T09:47:11;16.88;;;2.70;;
37431;SDS011;23292;51.300;6.252;2023-12-22T09:49:39;15.75;;;2.63;;
37431;SDS011;23292;51.300;6.252;2023-12-22T09:52:08;9.93;;;2.13;;
37431;SDS011;23292;51.300;6.252;2023-12-22T09:54:35;13.18;;;2.50;;
37431;SDS011;23292;51.300;6.252;2023-12-22T09:57:04;10.52;;;2.38;;
37431;SDS011;23292;51.300;6.252;2023-12-22T09:59:48;14.93;;;2.38;;
37431;SDS011;23292;51.300;6.252;2023-12-22T10:02:16;13.77;;;2.35;;
37431;SDS011;23292;51.300;6.252;2023-12-22T10:04:43;10.55;;;1.85;;
37431;SDS011;23292;51.300;6.252;2023-12-22T10:07:10;9.88;;;1.77;;
37431;SDS011;23292;51.300;6.252;2023-12-22T10:09:41;7.80;;;1.85;;
37431;SDS011;23292;51.300;6.252;2023-12-22T10:12:09;11.45;;;1.70;;
37431;SDS011;23292;51.300;6.252;2023-12-22T10:14:38;9.40;;;2.05;;
37431;SDS011;23292;51.300;6.252;2023-12-22T10:17:06;6.63;;;1.63;;
37431;SDS011;23292;51.300;6.252;2023-12-22T10:19:33;8.35;;;1.80;;
37431;SDS011;23292;51.300;6.252;2023-12-22T10:22:00;8.93;;;2.55;;
37431;SDS011;23292;51.300;6.252;2023-12-22T10:24:37;10.73;;;2.00;;
37431;SDS011;23292;51.300;6.252;2023-12-22T10:27:05;9.10;;;2.28;;
37431;SDS011;23292;51.300;6.252;2023-12-22T10:29:35;7.57;;;1.83;;
37431;SDS011;23292;51.300;6.252;2023-12-22T10:32:02;6.82;;;2.05;;
37431;SDS011;23292;51.300;6.252;2023-12-22T10:34:34;10.63;;;2.53;;
37431;SDS011;23292;51.300;6.252;2023-12-22T10:37:01;5.63;;;1.70;;
37431;SDS011;23292;51.300;6.252;2023-12-22T10:39:30;9.57;;;2.58;;
37431;SDS011;23292;51.300;6.252;2023-12-22T10:41:57;7.60;;;1.80;;
37431;SDS011;23292;51.300;6.252;2023-12-22T10:44:26;6.00;;;1.85;;
37431;SDS011;23292;51.300;6.252;2023-12-22T10:46:53;6.43;;;1.83;;
37431;SDS011;23292;51.300;6.252;2023-12-22T10:49:21;10.45;;;1.95;;
37431;SDS011;23292;51.300;6.252;2023-12-22T10:51:49;5.68;;;1.50;;
37431;SDS011;23292;51.300;6.252;2023-12-22T10:54:17;9.85;;;1.40;;
37431;SDS011;23292;51.300;6.252;2023-12-22T10:56:45;6.88;;;2.03;;
37431;SDS011;23292;51.300;6.252;2023-12-22T10:59:12;7.57;;;2.60;;
37431;SDS011;23292;51.300;6.252;2023-12-22T11:01:38;6.75;;;1.42;;
37431;SDS011;23292;51.300;6.252;2023-12-22T11:04:07;6.07;;;1.52;;
37431;SDS011;23292;51.300;6.252;2023-12-22T11:06:41;5.68;;;1.40;;
37431;SDS011;23292;51.300;6.252;2023-12-22T11:09:10;5.18;;;1.30;;
37431;SDS011;23292;51.300;6.252;2023-12-22T11:11:37;5.65;;;1.30;;
37431;SDS011;23292;51.300;6.252;2023-12-22T11:14:06;5.30;;;1.33;;
37431;SDS011;23292;51.300;6.252;2023-12-22T11:16:35;5.57;;;1.20;;
37431;SDS011;23292;51.300;6.252;2023-12-22T11:19:03;8.25;;;2.15;;
37431;SDS011;23292;51.300;6.252;2023-12-22T11:21:30;5.95;;;2.50;;
37431;SDS011;23292;51.300;6.252;2023-12-22T11:23:57;4.95;;;0.95;;
37431;SDS011;23292;51.300;6.252;2023-12-22T11:26:25;5.95;;;1.27;;
37431;SDS011;23292;51.300;6.252;2023-12-22T11:28:52;5.78;;;1.08;;
37431;SDS011;23292;51.300;6.252;2023-12-22T11:31:19;6.65;;;1.10;;
37431;SDS011;23292;51.300;6.252;2023-12-22T11:33:47;4.53;;;1.15;;
37431;SDS011;23292;51.300;6.252;2023-12-22T11:36:29;8.32;;;1.48;;
37431;SDS011;23292;51.300;6.252;2023-12-22T11:38:58;9.20;;;1.60;;
37431;SDS011;23292;51.300;6.252;2023-12-22T11:41:27;8.50;;;2.03;;
37431;SDS011;23292;51.300;6.252;2023-12-22T11:43:59;7.72;;;1.40;;
37431;SDS011;23292;51.300;6.252;2023-12-22T11:46:27;5.35;;;1.38;;
37431;SDS011;23292;51.300;6.252;2023-12-22T11:48:56;4.65;;;1.30;;
37431;SDS011;23292;51.300;6.252;2023-12-22T11:51:23;4.13;;;1.30;;
37431;SDS011;23292;51.300;6.252;2023-12-22T11:53:57;7.20;;;1.60;;
37431;SDS011;23292;51.300;6.252;2023-12-22T11:56:24;7.25;;;1.25;;
37431;SDS011;23292;51.300;6.252;2023-12-22T11:58:52;6.60;;;1.30;;
37431;SDS011;23292;51.300;6.252;2023-12-22T12:01:23;7.97;;;1.42;;
37431;SDS011;23292;51.300;6.252;2023-12-22T12:03:52;7.63;;;1.50;;
37431;SDS011;23292;51.300;6.252;2023-12-22T12:08:52;7.32;;;1.40;;
37431;SDS011;23292;51.300;6.252;2023-12-22T12:11:20;6.88;;;1.60;;
37431;SDS011;23292;51.300;6.252;2023-12-22T12:13:47;4.85;;;1.33;;
37431;SDS011;23292;51.300;6.252;2023-12-22T12:16:15;10.10;;;1.42;;
37431;SDS011;23292;51.300;6.252;2023-12-22T12:18:47;10.25;;;1.42;;
37431;SDS011;23292;51.300;6.252;2023-12-22T12:21:15;8.70;;;1.45;;
37431;SDS011;23292;51.300;6.252;2023-12-22T12:23:42;7.85;;;1.10;;
37431;SDS011;23292;51.300;6.252;2023-12-22T12:26:12;8.70;;;1.33;;
37431;SDS011;23292;51.300;6.252;2023-12-22T12:28:41;4.05;;;1.00;;
37431;SDS011;23292;51.300;6.252;2023-12-22T12:31:12;7.70;;;1.35;;
37431;SDS011;23292;51.300;6.252;2023-12-22T12:33:39;5.00;;;1.00;;
37431;SDS011;23292;51.300;6.252;2023-12-22T12:36:06;6.85;;;1.63;;
37431;SDS011;23292;51.300;6.252;2023-12-22T12:41:23;8.88;;;1.40;;
37431;SDS011;23292;51.300;6.252;2023-12-22T12:44:03;7.22;;;2.38;;
37431;SDS011;23292;51.300;6.252;2023-12-22T12:46:34;7.17;;;1.30;;
37431;SDS011;23292;51.300;6.252;2023-12-22T12:49:05;5.38;;;1.25;;
37431;SDS011;23292;51.300;6.252;2023-12-22T12:51:44;7.22;;;1.20;;
37431;SDS011;23292;51.300;6.252;2023-12-22T12:54:13;6.72;;;1.33;;
37431;SDS011;23292;51.300;6.252;2023-12-22T12:56:41;5.60;;;1.15;;
37431;SDS011;23292;51.300;6.252;2023-12-22T12:59:12;6.40;;;1.65;;
37431;SDS011;23292;51.300;6.252;2023-12-22T13:01:40;4.85;;;1.20;;
37431;SDS011;23292;51.300;6.252;2023-12-22T13:04:09;7.28;;;1.50;;
37431;SDS011;23292;51.300;6.252;2023-12-22T13:06:42;6.85;;;1.35;;
37431;SDS011;23292;51.300;6.252;2023-12-22T13:09:19;8.60;;;3.20;;
37431;SDS011;23292;51.300;6.252;2023-12-22T13:11:46;8.77;;;2.35;;
37431;SDS011;23292;51.300;6.252;2023-12-22T13:14:23;7.18;;;2.53;;
37431;SDS011;23292;51.300;6.252;2023-12-22T13:16:54;12.93;;;1.63;;
37431;SDS011;23292;51.300;6.252;2023-12-22T13:19:23;9.10;;;1.80;;
37431;SDS011;23292;51.300;6.252;2023-12-22T13:21:51;5.50;;;1.23;;
37431;SDS011;23292;51.300;6.252;2023-12-22T13:24:20;6.10;;;1.05;;
37431;SDS011;23292;51.300;6.252;2023-12-22T13:26:58;5.15;;;1.15;;
37431;SDS011;23292;51.300;6.252;2023-12-22T13:29:30;7.88;;;1.15;;
37431;SDS011;23292;51.300;6.252;2023-12-22T13:32:14;6.85;;;1.20;;
37431;SDS011;23292;51.300;6.252;2023-12-22T13:34:49;7.47;;;1.10;;
37431;SDS011;23292;51.300;6.252;2023-12-22T13:37:20;6.22;;;1.52;;
37431;SDS011;23292;51.300;6.252;2023-12-22T13:39:50;6.40;;;1.33;;
37431;SDS011;23292;51.300;6.252;2023-12-22T13:42:17;9.05;;;2.03;;
37431;SDS011;23292;51.300;6.252;2023-12-22T13:44:46;7.55;;;1.40;;
37431;SDS011;23292;51.300;6.252;2023-12-22T13:47:15;6.40;;;1.63;;
37431;SDS011;23292;51.300;6.252;2023-12-22T13:49:42;5.70;;;1.10;;
37431;SDS011;23292;51.300;6.252;2023-12-22T13:52:28;7.68;;;1.38;;
37431;SDS011;23292;51.300;6.252;2023-12-22T13:55:01;7.43;;;1.50;;
37431;SDS011;23292;51.300;6.252;2023-12-22T13:57:29;9.52;;;1.52;;
37431;SDS011;23292;51.300;6.252;2023-12-22T13:59:56;6.70;;;1.38;;
37431;SDS011;23292;51.300;6.252;2023-12-22T14:02:23;9.25;;;1.85;;
37431;SDS011;23292;51.300;6.252;2023-12-22T14:04:51;12.07;;;1.60;;
37431;SDS011;23292;51.300;6.252;2023-12-22T14:07:18;10.13;;;1.67;;
37431;SDS011;23292;51.300;6.252;2023-12-22T14:09:45;12.38;;;1.83;;
37431;SDS011;23292;51.300;6.252;2023-12-22T14:12:12;9.98;;;1.73;;
37431;SDS011;23292;51.300;6.252;2023-12-22T14:14:49;9.63;;;1.63;;
37431;SDS011;23292;51.300;6.252;2023-12-22T14:17:16;7.45;;;1.38;;
37431;SDS011;23292;51.300;6.252;2023-12-22T14:19:43;8.02;;;1.52;;
37431;SDS011;23292;51.300;6.252;2023-12-22T14:22:10;7.88;;;1.65;;
37431;SDS011;23292;51.300;6.252;2023-12-22T14:24:37;7.47;;;1.50;;
37431;SDS011;23292;51.300;6.252;2023-12-22T14:27:04;11.05;;;1.90;;
37431;SDS011;23292;51.300;6.252;2023-12-22T14:29:32;8.95;;;1.77;;
37431;SDS011;23292;51.300;6.252;2023-12-22T14:31:59;7.85;;;1.50;;
37431;SDS011;23292;51.300;6.252;2023-12-22T14:34:26;10.05;;;1.75;;
37431;SDS011;23292;51.300;6.252;2023-12-22T14:36:54;12.52;;;1.70;;
37431;SDS011;23292;51.300;6.252;2023-12-22T14:39:21;10.38;;;2.80;;
37431;SDS011;23292;51.300;6.252;2023-12-22T14:41:48;10.40;;;1.63;;
37431;SDS011;23292;51.300;6.252;2023-12-22T14:44:15;9.55;;;1.50;;
37431;SDS011;23292;51.300;6.252;2023-12-22T14:46:42;7.80;;;1.50;;
37431;SDS011;23292;51.300;6.252;2023-12-22T14:49:09;8.52;;;1.67;;
37431;SDS011;23292;51.300;6.252;2023-12-22T14:51:39;8.27;;;1.83;;
37431;SDS011;23292;51.300;6.252;2023-12-22T14:54:06;8.27;;;1.85;;
37431;SDS011;23292;51.300;6.252;2023-12-22T14:56:37;10.48;;;1.88;;
37431;SDS011;23292;51.300;6.252;2023-12-22T14:59:05;12.93;;;2.10;;
37431;SDS011;23292;51.300;6.252;2023-12-22T15:01:31;15.55;;;1.83;;